Aeroporto :
LOGIN :

Iscrizione | Disclaimer

   EN    FR    IT 

 










Sommario :    VFR   VFR Marginale   IFR   IFR Intensivo   IFR Molto Intensivo
Visibilità : 
Base nubi : 
>= 8 km
>= 3000ft
5 / 8 km
1000 / 3000 ft
1500m / 5 km
500 / 1000 ft
800 / 1500m
200 / 500 ft
< 800m
< 200 ft
Simboli :   Temporali  Nebbia  Neve Forte  Precipitazioni Forti  Vento > 20 kt
SIGMETs :   Varie  Temporali  Ghiacco  Turbolenza  Onda orograficha  Ceneri Vulcaniche






- Altitudine del aeroporto : 319 ft


EIME - Casement Air Base

ULTIMO METAR :
  • 151700Z 35008KT 9999 SCT026 BKN039 06/02 Q1014

METARs OBSOLETI :
  • 151630Z 35008KT 9999 FEW029 BKN042 06/02 Q1014
  • 151600Z 36009KT 9999 BKN033 07/02 Q1014
  • 151530Z 36011KT 9999 FEW024 BKN037 07/02 Q1014
  • 151500Z 36010KT 9999 SCT025 SCT040 07/02 Q1014

TAF TAF EIME
Valido dal 15 a 18 ore il 16 a 03 ore UTC


151700Z 1518/1603 36009KT 9999 FEW025 BKN040
BECMG 1518/1520 33006KT
BECMG 1521/1523 27005KT
TEMPO 1600/1603 3000 BR



MetMap, La meteo Aeronautica in un colpo d'occhio ! - Copyright ORBIFLY Dicembre 2007 - Disclaimer

ORBIFLY MET'MAP TEAM :

Programmazione e sviluppo : Alexandra Zaïnal
Concezione e sviluppo : Baudouin d'Aumeries
Co-Programmazione e sviluppo : Marc-Olivier Méhu
Supporto tecnico e logistico : Manuel Goepfert
Aiuto per la traduzione : Arnaldo La Scala

Contatto : metmap@orbifly.com




FONTI E CREDITI :

   NOAA